createdAt,value
2019-02-02T06:12:41.791Z,36.10
2019-02-02T06:15:10.866Z,37.50
2019-02-02T06:17:40.760Z,37.50
2019-02-02T06:20:10.850Z,37.40
2019-02-02T06:22:39.732Z,37.20
2019-02-02T06:25:09.970Z,37.40
2019-02-02T06:27:38.824Z,37.30
2019-02-02T06:30:11.296Z,37.30
2019-02-02T06:32:40.196Z,37.20
2019-02-02T06:35:10.893Z,37.10
2019-02-02T06:37:40.405Z,37.10
2019-02-02T06:40:10.555Z,37.20
2019-02-02T06:42:40.153Z,37.10
2019-02-02T06:45:12.800Z,37.10
2019-02-02T06:47:42.087Z,37.00
2019-02-02T06:50:13.211Z,37.00
2019-02-02T06:52:41.931Z,37.00
2019-02-02T06:55:11.941Z,36.90
2019-02-02T07:00:16.216Z,37.00
2019-02-02T07:02:41.458Z,36.90
2019-02-02T07:05:10.272Z,36.90
2019-02-02T07:07:39.680Z,37.00
2019-02-02T07:10:09.924Z,36.90
2019-02-02T07:12:38.464Z,36.90
2019-02-02T07:15:09.440Z,36.80
2019-02-02T07:17:38.148Z,36.80
2019-02-02T07:20:08.859Z,36.90
2019-02-02T07:22:38.278Z,36.80
2019-02-02T07:25:07.302Z,36.80
2019-02-02T07:27:36.448Z,36.80
2019-02-02T07:30:07.145Z,36.80
2019-02-02T07:35:04.855Z,36.90
2019-02-02T07:37:34.181Z,36.80
2019-02-02T07:40:03.416Z,36.90
2019-02-02T07:42:32.389Z,36.90
2019-02-02T07:45:01.141Z,36.90
2019-02-02T07:47:31.402Z,36.90
2019-02-02T07:50:01.331Z,36.80
2019-02-02T07:52:30.687Z,36.70
2019-02-02T07:54:59.491Z,36.60
2019-02-02T07:57:28.543Z,36.70
2019-02-02T07:59:57.408Z,37.40
2019-02-02T08:02:26.259Z,37.10
2019-02-02T08:04:55.432Z,38.00
2019-02-02T08:07:24.391Z,37.40
2019-02-02T08:09:53.525Z,37.40
2019-02-02T08:12:23.820Z,37.20
2019-02-02T08:14:52.888Z,37.10
2019-02-02T08:17:22.665Z,37.20
2019-02-02T08:19:51.492Z,37.10
2019-02-02T08:22:20.664Z,37.00
2019-02-02T08:24:49.874Z,36.90
2019-02-02T08:27:22.321Z,37.50
2019-02-02T08:29:51.385Z,36.80
2019-02-02T08:32:20.624Z,36.80
2019-02-02T08:34:49.331Z,36.60
2019-02-02T08:37:18.157Z,36.60
2019-02-02T08:39:47.628Z,36.60
2019-02-02T08:42:16.849Z,36.60
2019-02-02T08:44:46.548Z,36.90
2019-02-02T08:47:15.654Z,36.60
2019-02-02T08:49:44.852Z,36.40
2019-02-02T08:52:13.974Z,36.40
2019-02-02T08:54:43.607Z,36.40
2019-02-02T08:57:12.631Z,37.20
2019-02-02T08:59:41.540Z,36.40
2019-02-02T09:02:10.708Z,36.40
2019-02-02T09:04:41.004Z,36.40
2019-02-02T09:07:10.400Z,36.20
2019-02-02T09:12:08.647Z,36.10
2019-02-02T09:14:37.363Z,35.80
2019-02-02T09:17:06.556Z,35.90
2019-02-02T09:19:35.720Z,35.90
2019-02-02T09:22:07.728Z,36.70
2019-02-02T09:24:36.440Z,36.10
2019-02-02T09:27:05.661Z,36.20
2019-02-02T09:29:35.956Z,36.30
2019-02-02T09:32:05.399Z,36.40
2019-02-02T09:34:34.489Z,36.40
2019-02-02T09:37:03.717Z,36.40
2019-02-02T09:39:32.837Z,36.30
2019-02-02T09:42:01.640Z,37.40
2019-02-02T09:44:30.686Z,37.40
2019-02-02T09:47:00.025Z,37.40
2019-02-02T09:49:28.917Z,37.60
2019-02-02T09:51:57.607Z,37.40
2019-02-02T09:54:27.385Z,37.30
2019-02-02T09:56:56.548Z,37.30
2019-02-02T09:59:25.459Z,37.20
2019-02-02T10:01:54.159Z,37.10
2019-02-02T10:04:23.616Z,37.10
2019-02-02T10:06:52.456Z,36.90
2019-02-02T10:09:21.484Z,36.70
2019-02-02T10:11:50.401Z,36.90
2019-02-02T10:14:20.565Z,36.80
2019-02-02T10:16:49.382Z,36.70
2019-02-02T10:19:18.313Z,36.70
2019-02-02T10:24:16.447Z,36.60
2019-02-02T10:26:45.166Z,36.60
2019-02-02T10:29:14.405Z,36.50
2019-02-02T10:31:43.491Z,36.40
2019-02-02T10:34:13.047Z,36.40
2019-02-02T10:36:42.738Z,36.40
2019-02-02T10:39:11.627Z,36.20
2019-02-02T10:41:41.203Z,36.30
2019-02-02T10:44:09.913Z,36.30
2019-02-02T10:46:44.053Z,36.30
2019-02-02T10:49:13.260Z,36.20
2019-02-02T10:51:42.779Z,36.20
2019-02-02T10:54:11.556Z,36.20
2019-02-02T10:56:41.291Z,36.20
2019-02-02T10:59:10.441Z,36.20
2019-02-02T11:01:50.492Z,36.90
2019-02-02T11:04:08.044Z,36.20
2019-02-02T11:06:36.936Z,36.20
2019-02-02T11:09:09.394Z,36.90
2019-02-02T11:11:38.777Z,36.20
2019-02-02T11:14:08.105Z,36.20
2019-02-02T11:16:37.382Z,36.10
2019-02-02T11:19:06.531Z,36.20
2019-02-02T11:21:35.784Z,36.20
2019-02-02T11:24:05.891Z,36.20
2019-02-02T11:26:35.844Z,36.10
2019-02-02T11:29:05.024Z,36.10
2019-02-02T11:31:33.785Z,36.40
2019-02-02T11:34:03.161Z,36.20
2019-02-02T11:36:33.016Z,36.20
2019-02-02T11:39:02.576Z,36.00
2019-02-02T11:41:31.491Z,36.10
2019-02-02T11:44:00.248Z,36.10
2019-02-02T11:46:29.024Z,36.10
2019-02-02T11:49:05.166Z,36.10
2019-02-02T11:51:34.544Z,36.00
2019-02-02T11:54:03.435Z,36.10
2019-02-02T11:56:32.392Z,36.10
2019-02-02T11:59:01.564Z,36.10
2019-02-02T12:01:30.361Z,36.00
2019-02-02T12:03:59.123Z,36.00
2019-02-02T12:06:28.295Z,36.00
2019-02-02T12:08:57.204Z,36.00
2019-02-02T12:11:26.020Z,36.00
2019-02-02T12:13:56.008Z,35.90
2019-02-02T12:16:25.209Z,36.00
2019-02-02T12:18:54.040Z,36.00
2019-02-02T12:21:22.875Z,36.00
2019-02-02T12:23:52.407Z,36.00
2019-02-02T12:26:21.307Z,36.00
2019-02-02T12:28:50.054Z,35.90
2019-02-02T12:31:19.972Z,35.90
2019-02-02T12:33:49.759Z,36.20
2019-02-02T12:36:18.552Z,35.90
2019-02-02T12:38:47.556Z,35.90
2019-02-02T12:41:17.282Z,36.00
2019-02-02T12:43:46.169Z,36.00
2019-02-02T12:46:14.887Z,35.80
2019-02-02T12:48:44.062Z,35.90
2019-02-02T12:51:13.672Z,36.00
2019-02-02T12:53:42.860Z,35.90
2019-02-02T12:56:12.156Z,35.90
2019-02-02T12:58:41.239Z,36.00
2019-02-02T13:01:10.788Z,35.90
2019-02-02T13:03:40.607Z,35.90
2019-02-02T13:06:09.541Z,35.90
2019-02-02T13:11:06.864Z,36.00
2019-02-02T13:13:35.805Z,35.90
2019-02-02T13:16:04.636Z,35.90
2019-02-02T13:18:33.430Z,35.90
2019-02-02T13:21:02.313Z,36.00
2019-02-02T13:23:31.153Z,35.90
2019-02-02T13:26:05.454Z,35.90
2019-02-02T13:28:29.407Z,35.90
2019-02-02T13:30:58.228Z,35.90
2019-02-02T13:33:27.731Z,35.90
2019-02-02T13:35:56.996Z,36.00
2019-02-02T13:38:26.097Z,36.00
2019-02-02T13:40:55.323Z,36.00
2019-02-02T13:45:52.739Z,36.00
2019-02-02T13:48:21.554Z,36.00
2019-02-02T13:50:50.619Z,36.00
2019-02-02T13:53:21.872Z,35.90
2019-02-02T13:55:50.807Z,35.90
2019-02-02T13:58:19.545Z,35.80
2019-02-02T14:00:48.799Z,36.00
2019-02-02T14:03:17.924Z,36.00
2019-02-02T14:05:46.775Z,35.90
2019-02-02T14:08:15.712Z,35.90
2019-02-02T14:10:44.209Z,35.80
2019-02-02T14:13:13.503Z,36.00
2019-02-02T14:15:42.416Z,36.00
2019-02-02T14:18:11.607Z,36.00
2019-02-02T14:20:40.405Z,35.90
2019-02-02T14:23:09.258Z,35.90
2019-02-02T14:25:38.357Z,35.90
2019-02-02T14:28:07.547Z,35.90
2019-02-02T14:30:37.163Z,35.90
2019-02-02T14:33:13.600Z,36.00
2019-02-02T14:35:35.495Z,36.00
2019-02-02T14:38:04.637Z,36.00
2019-02-02T14:40:33.843Z,36.00
2019-02-02T14:43:02.640Z,36.00
2019-02-02T14:45:32.132Z,36.00
2019-02-02T14:48:01.058Z,35.90
2019-02-02T14:50:32.159Z,35.90
2019-02-02T14:52:59.311Z,35.90
2019-02-02T14:55:29.674Z,36.00
2019-02-02T14:57:58.621Z,36.00
2019-02-02T15:03:03.900Z,36.00
2019-02-02T15:05:42.543Z,36.00
2019-02-02T15:08:01.531Z,36.00
2019-02-02T15:10:30.343Z,36.70
2019-02-02T15:12:59.359Z,36.00
2019-02-02T15:15:28.198Z,36.00
2019-02-02T15:17:57.325Z,36.00
2019-02-02T15:20:28.942Z,36.00
2019-02-02T15:22:58.215Z,36.00
2019-02-02T15:25:27.633Z,36.00
2019-02-02T15:27:56.739Z,36.00
2019-02-02T15:30:26.784Z,36.00
2019-02-02T15:32:55.612Z,36.70
2019-02-02T15:35:24.522Z,36.00
2019-02-02T15:37:53.256Z,36.00
2019-02-02T15:40:22.497Z,36.00
2019-02-02T15:42:51.927Z,36.00
2019-02-02T15:45:22.695Z,35.90
2019-02-02T15:47:52.427Z,35.80
2019-02-02T15:50:21.268Z,35.90
2019-02-02T15:52:50.052Z,36.00
2019-02-02T15:55:21.951Z,36.00
2019-02-02T15:57:50.687Z,36.00
2019-02-02T16:00:23.841Z,36.00
2019-02-02T16:05:21.368Z,36.00
2019-02-02T16:07:51.118Z,36.00
2019-02-02T16:10:21.920Z,35.90
2019-02-02T16:12:51.140Z,36.00
2019-02-02T16:15:20.406Z,36.00
2019-02-02T16:17:50.672Z,36.00
2019-02-02T16:20:21.766Z,36.00
2019-02-02T16:22:51.425Z,36.70
2019-02-02T16:25:20.297Z,36.00
2019-02-02T16:27:49.458Z,35.90
2019-02-02T16:30:21.664Z,36.00
2019-02-02T16:32:50.363Z,36.00
2019-02-02T16:35:19.651Z,36.00
2019-02-02T16:37:48.509Z,36.00
2019-02-02T16:40:20.051Z,36.00
2019-02-02T16:42:49.596Z,36.00
2019-02-02T16:45:20.293Z,36.00
2019-02-02T16:47:54.365Z,36.00
2019-02-02T16:50:23.857Z,36.00
2019-02-02T16:52:52.696Z,36.00
2019-02-02T16:55:22.191Z,36.00
2019-02-02T16:57:52.096Z,36.00
2019-02-02T17:00:23.743Z,36.00
2019-02-02T17:02:52.580Z,35.90
2019-02-02T17:05:21.926Z,36.00
2019-02-02T17:07:51.791Z,36.00
2019-02-02T17:10:22.552Z,35.90
2019-02-02T17:12:51.424Z,36.00
2019-02-02T17:15:20.610Z,36.00
2019-02-02T17:17:49.757Z,36.00
2019-02-02T17:20:22.230Z,36.00
2019-02-02T17:22:51.304Z,36.00
2019-02-02T17:25:22.425Z,36.00
2019-02-02T17:27:49.175Z,36.00
2019-02-02T17:30:22.953Z,36.00
2019-02-02T17:32:54.239Z,36.00
2019-02-02T17:35:23.051Z,36.00
2019-02-02T17:37:51.680Z,36.10
2019-02-02T17:40:22.880Z,36.10
2019-02-02T17:42:51.963Z,35.80
2019-02-02T17:45:21.527Z,36.00
2019-02-02T17:47:50.540Z,36.00
2019-02-02T17:50:21.154Z,36.00
2019-02-02T17:52:51.608Z,36.00
2019-02-02T17:55:20.388Z,36.10
2019-02-02T17:57:49.851Z,36.10
2019-02-02T18:00:24.961Z,36.10
2019-02-02T18:02:53.794Z,36.10
2019-02-02T18:05:22.535Z,36.10
2019-02-02T18:07:52.565Z,36.10
2019-02-02T18:10:21.423Z,36.10
2019-02-02T18:12:50.265Z,36.10
2019-02-02T18:15:20.209Z,36.10
2019-02-02T18:17:49.604Z,36.10
2019-02-02T18:20:18.573Z,36.20
2019-02-02T18:22:48.544Z,36.10
2019-02-02T18:25:18.047Z,36.10
2019-02-02T18:27:48.211Z,36.20
2019-02-02T18:30:19.571Z,36.10
2019-02-02T18:32:49.805Z,36.20
2019-02-02T18:35:18.885Z,36.20
2019-02-02T18:37:48.011Z,36.30
2019-02-02T18:40:19.289Z,36.30
2019-02-02T18:42:48.943Z,36.20
2019-02-02T18:45:19.941Z,36.40
2019-02-02T18:47:49.202Z,36.40
2019-02-02T18:50:18.780Z,36.40
2019-02-02T18:52:47.915Z,36.40
2019-02-02T18:55:23.699Z,36.50
2019-02-02T18:57:52.859Z,36.50
2019-02-02T19:00:22.072Z,36.50
2019-02-02T19:02:51.200Z,36.50
2019-02-02T19:05:19.997Z,36.40
2019-02-02T19:07:49.558Z,36.50
2019-02-02T19:10:23.720Z,36.50
2019-02-02T19:12:52.510Z,36.50
2019-02-02T19:15:21.723Z,36.50
2019-02-02T19:17:50.641Z,36.40
2019-02-02T19:20:21.061Z,36.40
2019-02-02T19:22:49.930Z,36.50
2019-02-02T19:25:19.237Z,36.50
2019-02-02T19:27:48.196Z,36.40
2019-02-02T19:30:21.060Z,36.40
2019-02-02T19:32:50.016Z,36.40
2019-02-02T19:35:18.787Z,36.50
2019-02-02T19:37:49.740Z,36.40
2019-02-02T19:40:18.622Z,36.40
2019-02-02T19:42:47.927Z,36.40
2019-02-02T19:45:18.555Z,36.40
2019-02-02T19:47:48.076Z,36.30
2019-02-02T19:50:18.859Z,36.40
2019-02-02T19:52:48.172Z,36.40
2019-02-02T19:55:17.273Z,36.40
2019-02-02T19:57:46.120Z,36.30
2019-02-02T20:00:17.764Z,36.30
2019-02-02T20:02:46.642Z,36.30
2019-02-02T20:05:27.521Z,36.30
2019-02-02T20:07:44.834Z,37.00
2019-02-02T20:10:15.754Z,36.40
2019-02-02T20:12:44.648Z,36.30
2019-02-02T20:15:15.414Z,37.00
2019-02-02T20:17:45.710Z,37.00
2019-02-02T20:20:16.037Z,36.30
2019-02-02T20:22:45.257Z,36.20
2019-02-02T20:25:14.618Z,36.20
2019-02-02T20:27:43.616Z,36.30
2019-02-02T20:30:15.641Z,36.30
2019-02-02T20:32:44.843Z,36.30
2019-02-02T20:35:13.889Z,36.30
2019-02-02T20:37:43.231Z,36.30
2019-02-02T20:40:15.225Z,36.20
2019-02-02T20:42:44.524Z,36.20
2019-02-02T20:45:16.251Z,36.20
2019-02-02T20:47:45.298Z,36.20
2019-02-02T20:50:16.593Z,36.10
2019-02-02T20:52:47.573Z,36.10
2019-02-02T20:55:17.287Z,36.10
2019-02-02T20:57:47.583Z,36.20
2019-02-02T21:00:18.880Z,36.10
2019-02-02T21:02:51.579Z,36.10
2019-02-02T21:05:20.909Z,36.10
2019-02-02T21:07:50.083Z,36.00
2019-02-02T21:10:20.504Z,36.00
2019-02-02T21:12:49.944Z,36.00
2019-02-02T21:15:19.936Z,36.00
2019-02-02T21:17:49.116Z,36.00
2019-02-02T21:20:20.926Z,35.90
2019-02-02T21:22:49.788Z,35.90
2019-02-02T21:25:25.547Z,35.90
2019-02-02T21:27:54.939Z,36.00
2019-02-02T21:30:26.276Z,36.00
2019-02-02T21:32:55.493Z,35.80
2019-02-02T21:35:24.800Z,35.90
2019-02-02T21:37:54.343Z,35.80
2019-02-02T21:40:25.912Z,35.90
2019-02-02T21:42:55.137Z,35.80
2019-02-02T21:45:24.303Z,35.70
2019-02-02T21:47:54.295Z,35.80
2019-02-02T21:50:23.590Z,35.80
2019-02-02T21:52:52.605Z,35.70
2019-02-02T21:55:23.561Z,35.80
